createdAt,value
2022-10-06T00:04:03.719Z,2.83
2022-10-06T00:09:05.357Z,2.47
2022-10-06T00:14:07.166Z,2.23
2022-10-06T00:19:08.925Z,2.60
2022-10-06T00:24:10.750Z,3.87
2022-10-06T00:29:13.390Z,2.60
2022-10-06T00:34:15.064Z,2.53
2022-10-06T00:39:16.755Z,2.97
2022-10-06T00:44:18.434Z,2.53
2022-10-06T00:49:37.024Z,2.37
2022-10-06T00:54:39.498Z,2.47
2022-10-06T00:59:41.505Z,2.30
2022-10-06T01:04:52.188Z,2.40
2022-10-06T01:09:57.000Z,2.57
2022-10-06T01:14:58.893Z,2.30
2022-10-06T01:20:09.098Z,2.80
2022-10-06T01:25:16.625Z,2.00
2022-10-06T01:30:38.674Z,1.90
2022-10-06T01:35:40.376Z,3.10
2022-10-06T01:40:42.046Z,2.17
2022-10-06T01:45:43.691Z,2.43
2022-10-06T01:50:45.361Z,2.33
2022-10-06T01:55:47.258Z,2.00
2022-10-06T02:00:50.800Z,2.77
2022-10-06T02:05:56.576Z,2.43
2022-10-06T02:10:58.257Z,2.40
2022-10-06T02:16:00.346Z,2.73
2022-10-06T02:21:03.663Z,2.20
2022-10-06T02:26:06.706Z,2.57
2022-10-06T02:31:09.578Z,2.53
2022-10-06T02:36:15.396Z,2.87
2022-10-06T02:41:17.074Z,2.33
2022-10-06T02:46:18.895Z,2.47
2022-10-06T02:51:23.417Z,2.43
2022-10-06T02:56:26.320Z,2.80
2022-10-06T03:01:29.618Z,3.50
2022-10-06T03:06:31.942Z,2.43
2022-10-06T03:11:41.167Z,2.90
2022-10-06T03:16:43.717Z,2.27
2022-10-06T03:21:45.949Z,2.10
2022-10-06T03:26:47.919Z,1.90
2022-10-06T03:31:49.873Z,2.50
2022-10-06T03:36:51.901Z,2.50
2022-10-06T03:41:53.528Z,2.20
2022-10-06T03:46:55.243Z,2.10
2022-10-06T03:51:56.946Z,2.17
2022-10-06T03:56:58.684Z,2.33
2022-10-06T04:02:00.401Z,1.83
2022-10-06T04:07:02.267Z,2.13
2022-10-06T04:12:03.987Z,1.90
2022-10-06T04:17:05.958Z,1.77
2022-10-06T04:22:07.658Z,1.30
2022-10-06T04:27:27.420Z,1.30
2022-10-06T04:32:29.574Z,1.00
2022-10-06T04:37:31.233Z,0.83
2022-10-06T04:42:35.282Z,0.90
2022-10-06T04:47:37.274Z,0.80
2022-10-06T04:52:38.942Z,1.10
2022-10-06T04:57:40.589Z,0.60
2022-10-06T05:02:42.292Z,0.70
2022-10-06T05:07:45.710Z,1.23
2022-10-06T05:12:47.347Z,0.50
2022-10-06T05:17:49.001Z,0.60
2022-10-06T05:22:50.648Z,0.57
2022-10-06T05:27:52.319Z,0.60
2022-10-06T05:32:54.171Z,0.60
2022-10-06T05:37:55.842Z,0.80
2022-10-06T05:42:57.617Z,0.60
2022-10-06T05:47:59.269Z,0.57
2022-10-06T05:53:00.886Z,0.60
2022-10-06T05:58:02.513Z,0.60
2022-10-06T06:03:08.219Z,0.60
2022-10-06T06:08:10.860Z,0.50
2022-10-06T06:13:12.505Z,0.50
2022-10-06T06:18:14.124Z,0.40
2022-10-06T06:23:15.762Z,1.00
2022-10-06T06:28:17.467Z,0.40
2022-10-06T06:33:19.116Z,0.53
2022-10-06T06:38:20.792Z,0.57
2022-10-06T06:43:22.854Z,0.70
2022-10-06T06:48:24.533Z,0.67
2022-10-06T06:53:26.196Z,0.67
2022-10-06T06:58:28.323Z,1.03
2022-10-06T07:03:56.210Z,1.57
2022-10-06T07:08:53.279Z,0.73
2022-10-06T07:14:02.985Z,0.60
2022-10-06T07:19:25.574Z,0.70
2022-10-06T07:24:46.944Z,0.83
2022-10-06T07:29:54.332Z,0.70
2022-10-06T07:34:58.654Z,1.70
2022-10-06T07:40:01.157Z,1.17
2022-10-06T07:45:21.735Z,1.17
2022-10-06T07:50:25.716Z,0.63
2022-10-06T07:55:27.349Z,0.53
2022-10-06T08:00:29.088Z,1.10
2022-10-06T08:05:32.298Z,0.80
2022-10-06T08:10:33.983Z,0.67
2022-10-06T08:15:36.149Z,0.77
2022-10-06T08:20:37.887Z,0.40
2022-10-06T08:25:43.290Z,0.80
2022-10-06T08:30:45.045Z,0.77
2022-10-06T08:35:46.855Z,0.77
2022-10-06T08:40:48.715Z,0.80
2022-10-06T08:46:01.720Z,1.10
2022-10-06T08:51:34.392Z,0.50
2022-10-06T08:56:55.014Z,0.87
2022-10-06T09:01:56.737Z,1.20
2022-10-06T09:07:22.919Z,0.73
2022-10-06T09:12:41.399Z,1.97
2022-10-06T09:17:55.118Z,2.47
2022-10-06T09:22:57.374Z,1.23
2022-10-06T09:28:01.452Z,1.13
2022-10-06T09:33:07.335Z,1.10
2022-10-06T09:38:11.510Z,0.93
2022-10-06T09:43:31.736Z,1.63
2022-10-06T09:48:33.409Z,1.03
2022-10-06T09:53:37.655Z,1.10
2022-10-06T09:58:39.702Z,0.90
2022-10-06T10:04:18.777Z,1.10
2022-10-06T10:09:22.441Z,1.07
2022-10-06T10:14:24.884Z,0.80
2022-10-06T10:19:42.861Z,0.93
2022-10-06T10:25:07.958Z,0.80
2022-10-06T10:30:14.661Z,0.80
2022-10-06T10:35:41.735Z,0.60
2022-10-06T10:40:55.343Z,0.70
2022-10-06T10:46:33.623Z,0.60
2022-10-06T10:51:47.651Z,1.67
2022-10-06T10:56:53.339Z,0.93
2022-10-06T11:02:20.675Z,0.70
2022-10-06T11:07:46.586Z,1.00
2022-10-06T11:13:15.569Z,0.60
2022-10-06T11:18:54.157Z,0.97
2022-10-06T11:24:56.165Z,0.90
2022-10-06T11:30:26.861Z,0.97
2022-10-06T11:35:41.136Z,0.90
2022-10-06T11:41:14.011Z,0.60
2022-10-06T11:46:52.995Z,1.00
2022-10-06T11:52:18.590Z,1.23
2022-10-06T11:57:26.275Z,0.70
2022-10-06T12:02:40.792Z,0.60
2022-10-06T12:07:55.133Z,0.90
2022-10-06T12:15:12.126Z,0.97
2022-10-06T12:20:01.374Z,0.90
2022-10-06T12:25:41.030Z,0.60
2022-10-06T12:31:40.477Z,0.97
2022-10-06T12:36:44.971Z,0.83
2022-10-06T12:42:20.706Z,0.40
2022-10-06T12:47:41.382Z,0.80
2022-10-06T12:53:01.322Z,0.53
2022-10-06T12:58:03.070Z,0.90
2022-10-06T13:03:09.025Z,0.50
2022-10-06T13:08:29.352Z,0.87
2022-10-06T13:13:30.994Z,1.20
2022-10-06T13:18:32.845Z,1.10
2022-10-06T13:23:38.775Z,0.83
2022-10-06T13:28:43.291Z,1.00
2022-10-06T13:33:50.498Z,1.17
2022-10-06T13:38:53.255Z,0.80
2022-10-06T13:44:29.237Z,0.93
2022-10-06T13:49:55.453Z,0.90
2022-10-06T13:55:00.702Z,0.77
2022-10-06T14:00:22.022Z,0.60
2022-10-06T14:05:44.537Z,1.00
2022-10-06T14:10:56.859Z,0.90
2022-10-06T14:16:09.571Z,0.87
2022-10-06T14:21:37.346Z,0.70
2022-10-06T14:26:39.387Z,0.73
2022-10-06T14:31:41.090Z,0.77
2022-10-06T14:36:51.501Z,0.90
2022-10-06T14:41:53.226Z,0.57
2022-10-06T14:46:54.885Z,0.90
2022-10-06T14:51:56.886Z,1.10
2022-10-06T14:56:58.570Z,0.80
2022-10-06T15:02:00.884Z,0.70
2022-10-06T15:07:21.052Z,0.83
2022-10-06T15:12:22.701Z,0.83
2022-10-06T15:17:24.418Z,0.60
2022-10-06T15:22:26.081Z,0.87
2022-10-06T15:27:45.939Z,0.73
2022-10-06T15:32:49.314Z,0.90
2022-10-06T15:37:50.957Z,2.20
2022-10-06T15:42:52.884Z,0.77
2022-10-06T15:47:54.551Z,0.70
2022-10-06T15:52:56.311Z,1.10
2022-10-06T15:57:58.071Z,0.73
2022-10-06T16:02:59.748Z,0.70
2022-10-06T16:08:01.465Z,1.03
2022-10-06T16:13:03.159Z,1.07
2022-10-06T16:18:04.822Z,1.70
2022-10-06T16:23:06.519Z,1.27
2022-10-06T16:28:08.212Z,1.40
2022-10-06T16:33:09.875Z,1.10
2022-10-06T16:38:12.792Z,1.17
2022-10-06T16:43:14.415Z,1.00
2022-10-06T16:48:16.069Z,1.70
2022-10-06T16:53:18.486Z,1.27
2022-10-06T16:58:20.166Z,1.43
2022-10-06T17:03:21.796Z,2.50
2022-10-06T17:08:23.581Z,2.73
2022-10-06T17:13:25.258Z,2.00
2022-10-06T17:18:27.637Z,1.57
2022-10-06T17:23:31.081Z,1.47
2022-10-06T17:28:34.728Z,1.70
2022-10-06T17:33:41.061Z,1.07
2022-10-06T17:38:47.567Z,1.10
2022-10-06T17:43:51.410Z,2.47
2022-10-06T17:48:56.803Z,1.43
2022-10-06T17:54:01.458Z,1.90
2022-10-06T17:59:13.599Z,1.63
2022-10-06T18:04:16.015Z,1.53
2022-10-06T18:09:18.323Z,2.60
2022-10-06T18:14:23.879Z,2.93
2022-10-06T18:19:31.045Z,2.80
2022-10-06T18:24:33.522Z,2.17
2022-10-06T18:29:38.577Z,3.10
2022-10-06T18:40:06.180Z,1.90
2022-10-06T18:45:29.634Z,2.63
2022-10-06T18:50:32.195Z,1.83
2022-10-06T18:55:34.946Z,2.40
2022-10-06T19:00:36.705Z,2.23
2022-10-06T19:05:38.406Z,2.20
2022-10-06T19:11:00.087Z,2.70
2022-10-06T19:16:02.622Z,2.67
2022-10-06T19:21:09.325Z,3.80
2022-10-06T19:26:11.799Z,3.00
2022-10-06T19:31:18.641Z,3.10
2022-10-06T19:36:20.360Z,2.60
2022-10-06T19:41:40.455Z,3.27
2022-10-06T19:46:42.916Z,3.10
2022-10-06T19:51:44.706Z,3.70
2022-10-06T19:56:47.772Z,3.60
2022-10-06T20:01:51.596Z,2.70
2022-10-06T20:06:53.748Z,2.87
2022-10-06T20:11:55.569Z,2.53
2022-10-06T20:16:57.645Z,3.30
2022-10-06T20:21:59.543Z,5.10
2022-10-06T20:27:01.248Z,2.73
2022-10-06T20:32:05.049Z,3.47
2022-10-06T20:37:07.155Z,3.20
2022-10-06T20:42:14.817Z,2.73
2022-10-06T20:47:17.126Z,3.47
2022-10-06T20:52:18.825Z,2.80
2022-10-06T20:57:20.501Z,3.40
2022-10-06T21:02:23.059Z,3.33
2022-10-06T21:07:24.851Z,4.60
2022-10-06T21:12:27.002Z,3.53
2022-10-06T21:17:28.737Z,4.53
2022-10-06T21:22:31.317Z,5.80
2022-10-06T21:27:33.087Z,4.20
2022-10-06T21:32:34.819Z,3.27
2022-10-06T21:37:36.552Z,2.80
2022-10-06T21:42:38.332Z,3.10
2022-10-06T21:47:40.050Z,3.10
2022-10-06T21:52:41.752Z,2.73
2022-10-06T21:57:43.742Z,2.30
2022-10-06T22:02:45.754Z,3.47
2022-10-06T22:07:47.535Z,2.83
2022-10-06T22:12:49.214Z,3.30
2022-10-06T22:17:51.100Z,2.93
2022-10-06T22:22:52.769Z,2.70
2022-10-06T22:27:54.570Z,3.80
2022-10-06T22:32:56.222Z,2.37
2022-10-06T22:37:57.898Z,3.33
2022-10-06T22:42:59.554Z,2.97
2022-10-06T22:48:01.245Z,2.57
2022-10-06T22:53:02.923Z,2.50
2022-10-06T22:58:05.702Z,2.97
2022-10-06T23:03:09.806Z,2.43
2022-10-06T23:08:11.538Z,2.63
2022-10-06T23:13:13.206Z,2.83
2022-10-06T23:18:14.968Z,3.10
2022-10-06T23:23:16.696Z,3.10
2022-10-06T23:28:18.572Z,3.03
2022-10-06T23:33:20.514Z,3.10
2022-10-06T23:38:22.187Z,3.03
2022-10-06T23:43:24.312Z,3.50
2022-10-06T23:48:26.218Z,3.43
2022-10-06T23:53:30.642Z,3.40
2022-10-06T23:58:32.533Z,2.97
